createdAt,value
2023-04-18T00:00:34.384Z,58.80
2023-04-18T00:03:04.683Z,58.80
2023-04-18T00:05:34.699Z,58.80
2023-04-18T00:08:03.076Z,58.80
2023-04-18T00:10:31.492Z,58.90
2023-04-18T00:13:00.494Z,58.90
2023-04-18T00:15:30.324Z,58.80
2023-04-18T00:18:00.935Z,58.80
2023-04-18T00:20:29.459Z,58.80
2023-04-18T00:23:00.682Z,58.80
2023-04-18T00:25:29.123Z,58.90
2023-04-18T00:27:57.499Z,59.00
2023-04-18T00:30:27.117Z,59.00
2023-04-18T00:32:55.443Z,59.10
2023-04-18T00:35:24.955Z,59.00
2023-04-18T00:37:53.367Z,59.00
2023-04-18T00:40:23.130Z,59.10
2023-04-18T00:42:51.593Z,59.00
2023-04-18T00:45:20.597Z,59.10
2023-04-18T00:47:48.976Z,59.10
2023-04-18T00:50:18.109Z,59.10
2023-04-18T00:52:48.012Z,59.00
2023-04-18T00:55:18.314Z,59.00
2023-04-18T00:57:48.247Z,59.40
2023-04-18T01:00:17.337Z,59.30
2023-04-18T01:02:47.100Z,59.00
2023-04-18T01:05:15.616Z,59.10
2023-04-18T01:07:44.614Z,59.00
2023-04-18T01:10:13.041Z,59.10
2023-04-18T01:12:41.823Z,59.10
2023-04-18T01:15:12.735Z,59.20
2023-04-18T01:17:41.179Z,59.10
2023-04-18T01:20:11.384Z,59.20
2023-04-18T01:22:41.645Z,59.10
2023-04-18T01:25:12.883Z,59.20
2023-04-18T01:27:41.210Z,59.10
2023-04-18T01:30:11.736Z,59.10
2023-04-18T01:32:40.130Z,59.10
2023-04-18T01:35:09.907Z,59.10
2023-04-18T01:37:38.886Z,59.10
2023-04-18T01:40:12.260Z,59.10
2023-04-18T01:42:40.721Z,59.20
2023-04-18T01:45:13.477Z,59.20
2023-04-18T01:47:42.664Z,59.20
2023-04-18T01:50:13.910Z,59.20
2023-04-18T01:52:44.471Z,59.30
2023-04-18T01:55:14.499Z,59.20
2023-04-18T01:57:42.847Z,59.20
2023-04-18T02:00:13.192Z,59.20
2023-04-18T02:02:44.810Z,59.20
2023-04-18T02:05:13.427Z,59.20
2023-04-18T02:07:42.794Z,59.20
2023-04-18T02:10:13.258Z,59.20
2023-04-18T02:12:41.661Z,59.20
2023-04-18T02:15:11.606Z,59.20
2023-04-18T02:17:41.791Z,59.80
2023-04-18T02:20:11.322Z,59.20
2023-04-18T02:22:39.743Z,59.20
2023-04-18T02:25:09.117Z,59.20
2023-04-18T02:27:38.848Z,59.20
2023-04-18T02:30:08.872Z,59.20
2023-04-18T02:32:37.277Z,59.30
2023-04-18T02:35:06.717Z,59.30
2023-04-18T02:37:35.068Z,59.30
2023-04-18T02:40:05.170Z,59.30
2023-04-18T02:42:33.948Z,59.40
2023-04-18T02:45:04.749Z,59.40
2023-04-18T02:47:40.545Z,59.50
2023-04-18T02:50:18.770Z,59.60
2023-04-18T02:52:47.122Z,59.50
2023-04-18T02:55:15.938Z,59.40
2023-04-18T02:57:46.026Z,59.40
2023-04-18T03:00:34.127Z,59.40
2023-04-18T03:03:18.215Z,59.50
2023-04-18T03:05:57.452Z,59.40
2023-04-18T03:08:26.501Z,59.40
2023-04-18T03:10:56.377Z,59.40
2023-04-18T03:13:26.682Z,59.40
2023-04-18T03:15:57.051Z,59.40
2023-04-18T03:18:26.858Z,59.50
2023-04-18T03:20:58.616Z,59.40
2023-04-18T03:23:28.667Z,59.50
2023-04-18T03:25:57.101Z,59.90
2023-04-18T03:28:25.631Z,59.50
2023-04-18T03:30:56.377Z,59.50
2023-04-18T03:33:25.105Z,59.50
2023-04-18T03:36:02.050Z,59.50
2023-04-18T03:38:30.441Z,59.50
2023-04-18T03:40:58.890Z,59.80
2023-04-18T03:43:34.030Z,59.50
2023-04-18T03:46:04.380Z,59.50
2023-04-18T03:48:35.898Z,59.60
2023-04-18T03:51:08.209Z,60.00
2023-04-18T03:53:37.558Z,59.60
2023-04-18T03:56:07.261Z,59.60
2023-04-18T03:58:51.515Z,59.70
2023-04-18T04:01:23.625Z,59.70
2023-04-18T04:03:53.969Z,59.80
2023-04-18T04:06:23.387Z,59.80
2023-04-18T04:08:51.808Z,59.90
2023-04-18T04:11:24.834Z,59.90
2023-04-18T04:13:54.245Z,60.00
2023-04-18T04:16:30.272Z,59.90
2023-04-18T04:18:59.636Z,59.90
2023-04-18T04:21:36.150Z,59.90
2023-04-18T04:24:07.137Z,59.90
2023-04-18T04:26:43.150Z,60.00
2023-04-18T04:29:16.499Z,60.00
2023-04-18T04:31:48.305Z,60.00
2023-04-18T04:34:24.462Z,60.00
2023-04-18T04:36:54.022Z,60.00
2023-04-18T04:39:23.226Z,60.60
2023-04-18T04:42:12.220Z,60.10
2023-04-18T04:44:50.917Z,60.10
2023-04-18T04:47:21.039Z,60.10
2023-04-18T04:49:49.824Z,60.10
2023-04-18T04:52:18.226Z,60.10
2023-04-18T04:54:46.737Z,60.20
2023-04-18T04:57:17.540Z,60.20
2023-04-18T04:59:46.471Z,60.20
2023-04-18T05:02:15.154Z,60.20
2023-04-18T05:04:44.984Z,60.20
2023-04-18T05:07:13.375Z,60.20
2023-04-18T05:09:42.007Z,60.30
2023-04-18T05:12:10.690Z,60.20
2023-04-18T05:14:39.106Z,60.30
2023-04-18T05:17:07.916Z,60.40
2023-04-18T05:19:36.815Z,60.50
2023-04-18T05:22:06.704Z,60.30
2023-04-18T05:24:35.346Z,60.30
2023-04-18T05:27:03.828Z,60.50
2023-04-18T05:29:32.135Z,60.40
2023-04-18T05:32:00.544Z,61.20
2023-04-18T05:34:28.880Z,60.40
2023-04-18T05:36:57.254Z,60.50
2023-04-18T05:39:27.113Z,60.40
2023-04-18T05:41:55.593Z,60.50
2023-04-18T05:44:24.277Z,60.50
2023-04-18T05:46:52.714Z,60.40
2023-04-18T05:49:21.364Z,60.40
2023-04-18T05:51:50.039Z,60.50
2023-04-18T05:54:18.436Z,60.60
2023-04-18T05:56:48.420Z,60.50
2023-04-18T05:59:16.774Z,60.60
2023-04-18T06:01:45.204Z,60.60
2023-04-18T06:04:14.180Z,60.60
2023-04-18T06:06:43.201Z,60.60
2023-04-18T06:09:11.600Z,60.50
2023-04-18T06:11:39.897Z,60.40
2023-04-18T06:14:09.611Z,60.40
2023-04-18T06:16:38.286Z,60.50
2023-04-18T06:19:06.757Z,61.30
2023-04-18T06:21:35.108Z,60.60
2023-04-18T06:24:03.482Z,60.60
2023-04-18T06:26:32.751Z,60.70
2023-04-18T06:29:01.156Z,60.70
2023-04-18T06:31:30.984Z,60.70
2023-04-18T06:33:59.322Z,60.80
2023-04-18T06:36:28.103Z,60.80
2023-04-18T06:38:56.478Z,60.80
2023-04-18T06:41:24.811Z,60.80
2023-04-18T06:44:03.447Z,60.90
2023-04-18T06:46:34.449Z,60.80
2023-04-18T06:49:02.779Z,60.80
2023-04-18T06:51:31.684Z,60.80
2023-04-18T06:54:00.082Z,60.80
2023-04-18T06:56:29.671Z,60.70
2023-04-18T06:58:57.984Z,60.80
2023-04-18T07:01:26.473Z,60.80
2023-04-18T07:03:56.373Z,60.80
2023-04-18T07:06:24.913Z,60.90
2023-04-18T07:08:56.038Z,60.90
2023-04-18T07:11:24.608Z,60.80
2023-04-18T07:13:52.953Z,60.80
2023-04-18T07:16:21.582Z,60.80
2023-04-18T07:18:49.959Z,60.80
2023-04-18T07:21:20.259Z,60.90
2023-04-18T07:23:48.775Z,60.90
2023-04-18T07:26:17.128Z,60.90
2023-04-18T07:28:45.563Z,60.90
2023-04-18T07:31:14.530Z,61.00
2023-04-18T07:33:43.430Z,61.00
2023-04-18T07:36:12.064Z,61.00
2023-04-18T07:38:41.725Z,61.00
2023-04-18T07:41:10.057Z,61.00
2023-04-18T07:43:38.922Z,61.00
2023-04-18T07:46:07.743Z,61.00
2023-04-18T07:48:36.072Z,61.00
2023-04-18T07:51:05.694Z,61.10
2023-04-18T07:53:34.028Z,61.10
2023-04-18T07:56:03.677Z,61.00
2023-04-18T07:58:32.209Z,61.00
2023-04-18T08:01:01.053Z,60.90
2023-04-18T08:03:29.850Z,60.90
2023-04-18T08:05:58.415Z,60.90
2023-04-18T08:08:26.687Z,60.90
2023-04-18T08:10:55.089Z,60.80
2023-04-18T08:13:24.830Z,60.80
2023-04-18T08:15:53.150Z,61.10
2023-04-18T08:18:23.038Z,60.80
2023-04-18T08:20:51.449Z,60.80
2023-04-18T08:23:20.013Z,60.90
2023-04-18T08:25:48.419Z,60.90
2023-04-18T08:28:16.801Z,60.90
2023-04-18T08:30:48.845Z,60.80
2023-04-18T08:33:17.492Z,60.80
2023-04-18T08:35:46.015Z,60.70
2023-04-18T08:38:14.788Z,60.80
2023-04-18T08:40:44.803Z,60.90
2023-04-18T08:43:15.162Z,60.70
2023-04-18T08:45:44.379Z,60.80
2023-04-18T08:48:18.471Z,60.80
2023-04-18T08:50:47.753Z,60.80
2023-04-18T08:53:18.050Z,60.70
2023-04-18T08:55:47.772Z,60.70
2023-04-18T08:58:23.416Z,60.50
2023-04-18T09:00:52.948Z,60.70
2023-04-18T09:03:39.834Z,60.70
2023-04-18T09:06:10.431Z,60.80
2023-04-18T09:08:39.204Z,60.80
2023-04-18T09:11:28.992Z,60.70
2023-04-18T09:13:59.031Z,60.80
2023-04-18T09:16:29.272Z,60.70
2023-04-18T09:19:14.609Z,60.70
2023-04-18T09:21:46.276Z,60.90
2023-04-18T09:24:22.789Z,60.80
2023-04-18T09:26:53.898Z,60.90
2023-04-18T09:29:23.798Z,61.30
2023-04-18T09:32:01.199Z,60.80
2023-04-18T09:34:34.061Z,60.80
2023-04-18T09:37:10.752Z,60.70
2023-04-18T09:39:43.760Z,60.70
2023-04-18T09:42:12.756Z,60.70
2023-04-18T09:45:02.447Z,60.70
2023-04-18T09:47:31.215Z,60.80
2023-04-18T09:50:00.957Z,60.60
2023-04-18T09:52:35.958Z,61.40
2023-04-18T09:55:07.051Z,60.70
2023-04-18T09:57:37.412Z,60.80
2023-04-18T10:00:17.484Z,60.80
2023-04-18T10:02:59.333Z,60.80
2023-04-18T10:05:33.473Z,60.90
2023-04-18T10:08:02.051Z,60.90
2023-04-18T10:10:30.722Z,60.90
2023-04-18T10:13:01.587Z,60.90
2023-04-18T10:15:31.653Z,61.00
2023-04-18T10:18:05.680Z,60.90
2023-04-18T10:20:36.645Z,60.90
2023-04-18T10:23:36.636Z,60.90
2023-04-18T10:26:06.521Z,61.10
2023-04-18T10:28:56.829Z,61.00
2023-04-18T10:31:27.031Z,61.20
2023-04-18T10:34:04.684Z,61.10
2023-04-18T10:36:36.158Z,61.00
2023-04-18T10:39:22.589Z,60.90
2023-04-18T10:41:52.144Z,61.10
2023-04-18T10:44:23.373Z,61.00
2023-04-18T10:47:24.041Z,61.20
2023-04-18T10:50:08.198Z,61.30
2023-04-18T10:52:38.146Z,61.20
2023-04-18T10:55:17.070Z,61.40
2023-04-18T10:57:47.842Z,61.10
2023-04-18T11:00:18.542Z,61.30
2023-04-18T11:02:52.898Z,61.00
2023-04-18T11:05:24.469Z,61.20
2023-04-18T11:07:54.857Z,61.20
2023-04-18T11:10:25.660Z,61.10
2023-04-18T11:12:55.413Z,61.10
2023-04-18T11:15:25.718Z,61.10
2023-04-18T11:17:59.913Z,61.00
2023-04-18T11:20:29.059Z,61.00
2023-04-18T11:23:01.197Z,60.90
2023-04-18T11:25:32.002Z,60.90
2023-04-18T11:28:02.064Z,60.90
2023-04-18T11:30:39.751Z,60.90
2023-04-18T11:33:09.348Z,60.90
2023-04-18T11:35:43.061Z,60.90
2023-04-18T11:38:15.039Z,61.00
2023-04-18T11:40:49.366Z,61.00
2023-04-18T11:43:23.905Z,61.00
2023-04-18T11:45:57.150Z,61.10
2023-04-18T11:48:25.845Z,61.10
2023-04-18T11:50:54.327Z,61.20
2023-04-18T11:53:38.008Z,61.20
2023-04-18T11:56:07.924Z,61.40
2023-04-18T11:58:37.651Z,61.20
2023-04-18T12:01:21.026Z,61.10
2023-04-18T12:04:02.862Z,61.20
2023-04-18T12:06:49.405Z,61.20
2023-04-18T12:09:21.197Z,61.20
2023-04-18T12:11:59.553Z,61.10
2023-04-18T12:14:28.858Z,61.20
2023-04-18T12:16:57.367Z,61.10
2023-04-18T12:19:28.670Z,61.00
2023-04-18T12:22:00.477Z,61.10
2023-04-18T12:24:30.402Z,61.10
2023-04-18T12:26:59.053Z,61.10
2023-04-18T12:29:28.902Z,61.10
2023-04-18T12:31:57.443Z,61.00
2023-04-18T12:34:25.921Z,61.00
2023-04-18T12:36:54.882Z,60.90
2023-04-18T12:39:23.195Z,61.00
2023-04-18T12:41:52.945Z,60.90
2023-04-18T12:44:21.351Z,61.00
2023-04-18T12:46:49.729Z,60.90
2023-04-18T12:49:18.197Z,60.90
2023-04-18T12:51:46.507Z,60.90
2023-04-18T12:54:14.958Z,60.90
2023-04-18T12:56:43.470Z,61.00
2023-04-18T12:59:13.443Z,61.00
2023-04-18T13:01:41.968Z,61.00
2023-04-18T13:04:12.990Z,60.90
2023-04-18T13:06:41.936Z,61.00
2023-04-18T13:09:10.504Z,60.90
2023-04-18T13:11:38.838Z,60.90
2023-04-18T13:14:07.312Z,60.80
2023-04-18T13:16:37.192Z,60.80
2023-04-18T13:19:05.679Z,60.80
2023-04-18T13:21:34.005Z,60.80
2023-04-18T13:24:02.443Z,60.80
2023-04-18T13:26:35.574Z,60.80
2023-04-18T13:29:04.482Z,60.90
2023-04-18T13:31:32.934Z,60.90
2023-04-18T13:34:02.638Z,60.90
2023-04-18T13:36:31.682Z,61.00
2023-04-18T13:39:00.290Z,60.90
2023-04-18T13:41:29.043Z,60.80
2023-04-18T13:43:57.481Z,60.80
2023-04-18T13:46:27.414Z,60.80
2023-04-18T13:48:55.784Z,60.90
2023-04-18T13:51:25.859Z,60.90
2023-04-18T13:53:54.190Z,61.00
2023-04-18T13:56:22.560Z,61.00
2023-04-18T13:58:51.018Z,61.00
2023-04-18T14:01:19.567Z,61.00
2023-04-18T14:03:48.078Z,61.00
2023-04-18T14:06:16.672Z,61.00
2023-04-18T14:08:46.400Z,61.00
2023-04-18T14:11:14.782Z,61.00
2023-04-18T14:13:43.200Z,61.10
2023-04-18T14:16:11.594Z,61.10
2023-04-18T14:18:40.132Z,61.20
2023-04-18T14:21:08.584Z,61.20
2023-04-18T14:23:36.892Z,61.20
2023-04-18T14:26:06.908Z,61.30
2023-04-18T14:28:35.372Z,61.30
2023-04-18T14:31:06.437Z,61.20
2023-04-18T14:33:35.091Z,61.20
2023-04-18T14:36:04.036Z,61.20
2023-04-18T14:38:32.367Z,61.10
2023-04-18T14:41:01.104Z,61.40
2023-04-18T14:43:30.787Z,61.10
2023-04-18T14:45:59.791Z,61.20
2023-04-18T14:48:28.562Z,61.20
2023-04-18T14:51:02.531Z,61.80
2023-04-18T14:53:31.148Z,61.30
2023-04-18T14:55:59.485Z,61.20
2023-04-18T14:58:27.805Z,61.10
2023-04-18T15:00:57.689Z,61.20
2023-04-18T15:03:26.191Z,61.20
2023-04-18T15:05:55.110Z,61.20
2023-04-18T15:08:23.477Z,61.20
2023-04-18T15:10:51.813Z,61.20
2023-04-18T15:13:20.473Z,61.20
2023-04-18T15:15:53.696Z,61.30
2023-04-18T15:18:23.480Z,61.30
2023-04-18T15:20:53.810Z,61.30
2023-04-18T15:23:22.145Z,61.20
2023-04-18T15:25:50.530Z,61.20
2023-04-18T15:28:19.264Z,61.10
2023-04-18T15:30:47.657Z,61.10
2023-04-18T15:33:17.973Z,61.20
2023-04-18T15:35:48.631Z,61.20
2023-04-18T15:38:17.157Z,61.30
2023-04-18T15:40:45.568Z,61.30
2023-04-18T15:43:13.985Z,61.20
2023-04-18T15:45:44.536Z,61.20
2023-04-18T15:48:13.790Z,61.20
2023-04-18T15:50:42.544Z,61.30
2023-04-18T15:53:12.455Z,61.30
2023-04-18T15:55:40.744Z,61.40
2023-04-18T15:58:09.223Z,61.30
2023-04-18T16:00:37.639Z,61.40
2023-04-18T16:03:06.180Z,61.20
2023-04-18T16:05:34.703Z,61.40
2023-04-18T16:08:03.395Z,61.30
2023-04-18T16:10:33.348Z,61.30
2023-04-18T16:13:02.429Z,61.30
2023-04-18T16:15:32.557Z,61.30
2023-04-18T16:18:00.987Z,61.40
2023-04-18T16:20:29.541Z,61.60
2023-04-18T16:22:57.986Z,61.40
2023-04-18T16:25:26.557Z,61.40
2023-04-18T16:27:56.575Z,61.40
2023-04-18T16:30:24.973Z,61.40
2023-04-18T16:32:54.329Z,61.50
2023-04-18T16:35:22.998Z,61.40
2023-04-18T16:37:51.343Z,61.40
2023-04-18T16:40:19.820Z,61.30
2023-04-18T16:42:48.308Z,61.40
2023-04-18T16:45:18.168Z,61.40
2023-04-18T16:47:46.584Z,61.40
2023-04-18T16:50:15.450Z,61.40
2023-04-18T16:52:43.772Z,61.40
2023-04-18T16:55:12.258Z,61.60
2023-04-18T16:57:40.675Z,61.40
2023-04-18T17:00:13.587Z,61.30
2023-04-18T17:02:43.805Z,61.40
2023-04-18T17:05:12.294Z,61.30
2023-04-18T17:07:40.655Z,61.60
2023-04-18T17:10:11.016Z,61.70
2023-04-18T17:12:39.380Z,61.40
2023-04-18T17:15:08.945Z,61.30
2023-04-18T17:17:37.409Z,61.40
2023-04-18T17:20:09.402Z,61.40
2023-04-18T17:22:37.986Z,61.40
2023-04-18T17:25:07.937Z,61.30
2023-04-18T17:27:36.395Z,61.30
2023-04-18T17:30:05.515Z,61.30
2023-04-18T17:32:33.878Z,61.30
2023-04-18T17:35:04.816Z,61.30
2023-04-18T17:37:34.568Z,61.30
2023-04-18T17:40:06.474Z,61.30
2023-04-18T17:42:35.704Z,61.40
2023-04-18T17:45:04.736Z,61.50
2023-04-18T17:47:33.620Z,61.50
2023-04-18T17:50:02.183Z,61.50
2023-04-18T17:52:30.643Z,61.50
2023-04-18T17:55:01.640Z,61.50
2023-04-18T17:57:30.585Z,61.60
2023-04-18T17:59:59.006Z,61.60
2023-04-18T18:02:28.165Z,61.60
2023-04-18T18:04:56.680Z,61.60
2023-04-18T18:07:25.012Z,61.80
2023-04-18T18:09:53.899Z,61.60
2023-04-18T18:12:24.009Z,62.10
2023-04-18T18:14:53.126Z,61.70
2023-04-18T18:27:45.985Z,61.70
2023-04-18T18:40:21.472Z,61.70
2023-04-18T18:46:00.150Z,61.70
2023-04-18T18:48:29.791Z,61.80
2023-04-18T18:50:59.720Z,61.70
2023-04-18T18:53:28.860Z,61.40
2023-04-18T18:55:59.556Z,61.60
2023-04-18T18:58:28.537Z,61.70
2023-04-18T19:00:57.446Z,61.70
2023-04-18T19:03:28.013Z,61.80
2023-04-18T19:19:48.820Z,62.00
2023-04-18T19:22:38.222Z,61.90
2023-04-18T20:25:08.448Z,62.20
2023-04-18T20:31:06.476Z,62.20
2023-04-18T20:33:36.773Z,62.60
2023-04-18T20:45:59.212Z,62.40
2023-04-18T20:48:29.104Z,61.70
2023-04-18T20:50:59.001Z,62.70
2023-04-18T20:53:29.077Z,62.10
2023-04-18T20:55:57.902Z,62.50
2023-04-18T20:58:30.760Z,62.50
2023-04-18T21:01:52.631Z,62.40
2023-04-18T21:04:24.636Z,62.70
2023-04-18T21:06:53.787Z,62.10
2023-04-18T21:09:23.552Z,62.50
2023-04-18T21:11:56.052Z,62.60
2023-04-18T21:14:26.698Z,62.50
2023-04-18T21:17:00.095Z,62.30
2023-04-18T21:19:31.114Z,63.10
2023-04-18T21:28:57.724Z,62.60
2023-04-18T21:31:31.394Z,63.40
2023-04-18T21:34:04.649Z,62.50
2023-04-18T21:36:35.756Z,62.50
2023-04-18T21:39:06.239Z,62.10
2023-04-18T21:41:35.631Z,62.20
2023-04-18T21:44:05.123Z,62.90
2023-04-18T21:46:36.487Z,62.00
2023-04-18T21:49:10.492Z,62.20
2023-04-18T21:51:42.003Z,62.40
2023-04-18T22:31:50.121Z,62.80
2023-04-18T22:34:43.120Z,62.80
2023-04-18T22:37:12.343Z,62.80
2023-04-18T22:39:42.073Z,63.00
2023-04-18T22:42:12.366Z,62.30
2023-04-18T22:56:45.345Z,62.60
2023-04-18T22:59:14.809Z,62.40
2023-04-18T23:01:43.676Z,62.50
2023-04-18T23:04:14.223Z,63.40
2023-04-18T23:06:43.193Z,62.30
2023-04-18T23:09:11.836Z,63.40
2023-04-18T23:11:41.087Z,62.50
2023-04-18T23:14:09.868Z,62.60
2023-04-18T23:16:38.506Z,62.80
2023-04-18T23:19:06.907Z,63.00
2023-04-18T23:21:36.734Z,62.80
2023-04-18T23:24:06.241Z,62.80
2023-04-18T23:26:35.242Z,62.70
2023-04-18T23:29:04.711Z,62.80
2023-04-18T23:31:34.203Z,63.00
2023-04-18T23:34:03.137Z,62.80
2023-04-18T23:36:32.612Z,62.80
2023-04-18T23:39:04.415Z,62.30
2023-04-18T23:41:38.872Z,62.50
2023-04-18T23:54:16.404Z,62.80
2023-04-18T23:56:48.291Z,62.50
2023-04-18T23:59:19.525Z,62.30
